Time;durP1;ratioP1;P1;durP2;ratioP2;P2;SDS_P1;SDS_P2;PMS_P1;PMS_P2;Temp;Humidity;BMP_temperature;BMP_pressure;BME280_temperature;BME280_humidity;BME280_pressure;Samples;Min_cycle;Max_cycle;Signal;HPM_P1;HPM_P2
2021/04/20 00:00:23;;;;;;;23.27;16.58;;;;;;;;;;4994157;28;20030;-45
2021/04/20 00:02:49;;;;;;;25.05;17.88;;;;;;;;;;4993859;28;20026;-47
2021/04/20 00:05:19;;;;;;;23.80;18.10;;;;;;;;;;4993877;28;20491;-45
2021/04/20 00:07:45;;;;;;;26.55;19.38;;;;;;;;;;4993851;28;20046;-48
2021/04/20 00:10:13;;;;;;;26.35;18.73;;;;;;;;;;4994155;28;20493;-45
2021/04/20 00:12:40;;;;;;;34.72;22.38;;;;;;;;;;4993909;28;20022;-44
2021/04/20 00:15:09;;;;;;;34.15;23.15;;;;;;;;;;4993871;28;20076;-46
2021/04/20 00:17:35;;;;;;;34.33;24.15;;;;;;;;;;4993830;28;20034;-46
2021/04/20 00:20:01;;;;;;;50.45;33.83;;;;;;;;;;4993747;28;20031;-45
2021/04/20 00:22:27;;;;;;;64.50;40.15;;;;;;;;;;4994027;28;20026;-45
2021/04/20 00:24:53;;;;;;;48.25;30.20;;;;;;;;;;4993706;28;20525;-45
2021/04/20 00:27:19;;;;;;;41.22;26.73;;;;;;;;;;4993774;28;20026;-46
2021/04/20 00:29:45;;;;;;;57.63;35.45;;;;;;;;;;4993620;28;20030;-45
2021/04/20 00:32:11;;;;;;;54.47;33.63;;;;;;;;;;4993651;28;20425;-45
2021/04/20 00:34:37;;;;;;;56.03;36.45;;;;;;;;;;4993625;28;20029;-47
2021/04/20 00:37:03;;;;;;;50.45;32.35;;;;;;;;;;4993310;28;20042;-47
2021/04/20 00:39:29;;;;;;;50.92;32.00;;;;;;;;;;4993492;28;20054;-45
2021/04/20 00:42:05;;;;;;;48.67;30.85;;;;;;;;;;4993664;28;20461;-46
2021/04/20 00:44:32;;;;;;;68.28;43.45;;;;;;;;;;4993496;28;20038;-46
2021/04/20 00:46:59;;;;;;;59.20;37.85;;;;;;;;;;4993475;28;20054;-45
2021/04/20 00:49:25;;;;;;;67.72;41.22;;;;;;;;;;4993481;28;20387;-48
2021/04/20 00:51:52;;;;;;;58.95;37.13;;;;;;;;;;4993288;28;20018;-47
2021/04/20 00:54:18;;;;;;;57.47;37.85;;;;;;;;;;4994400;28;20031;-47
2021/04/20 00:56:45;;;;;;;50.80;32.92;;;;;;;;;;4997419;28;20486;-44
2021/04/20 00:59:11;;;;;;;54.55;34.80;;;;;;;;;;4997460;28;20477;-48
2021/04/20 01:01:38;;;;;;;52.03;34.50;;;;;;;;;;4997431;28;20105;-45
2021/04/20 01:04:04;;;;;;;53.95;33.42;;;;;;;;;;4997317;28;20154;-49
2021/04/20 01:06:32;;;;;;;59.85;37.75;;;;;;;;;;4996928;28;20054;-47
2021/04/20 01:08:59;;;;;;;54.08;34.90;;;;;;;;;;4997074;28;20026;-47
2021/04/20 01:11:25;;;;;;;50.88;32.35;;;;;;;;;;4997268;28;20366;-46
2021/04/20 01:13:51;;;;;;;62.70;38.40;;;;;;;;;;4997236;28;20386;-44
2021/04/20 01:16:21;;;;;;;47.80;30.98;;;;;;;;;;4997149;28;20034;-46
2021/04/20 01:18:49;;;;;;;44.92;29.30;;;;;;;;;;4996950;28;20028;-45
2021/04/20 01:21:18;;;;;;;64.25;41.15;;;;;;;;;;4997033;28;20023;-48
2021/04/20 01:24:03;;;;;;;52.17;32.35;;;;;;;;;;4996854;28;20344;-46
2021/04/20 01:26:30;;;;;;;60.17;37.83;;;;;;;;;;4996673;28;20500;-44
2021/04/20 01:28:57;;;;;;;46.53;28.63;;;;;;;;;;4996653;28;20501;-47
2021/04/20 01:31:23;;;;;;;36.75;26.50;;;;;;;;;;4978678;28;20030;-46
2021/04/20 01:33:49;;;;;;;42.50;28.55;;;;;;;;;;4996606;28;20054;-46
2021/04/20 01:36:17;;;;;;;39.45;24.85;;;;;;;;;;4996460;28;20046;-48
2021/04/20 01:38:47;;;;;;;44.80;28.52;;;;;;;;;;4996798;28;20023;-46
2021/04/20 01:41:13;;;;;;;41.55;26.48;;;;;;;;;;4996721;28;20026;-46
2021/04/20 01:43:40;;;;;;;32.10;22.73;;;;;;;;;;4996878;28;20027;-46
2021/04/20 01:46:07;;;;;;;33.20;22.60;;;;;;;;;;4996614;28;20022;-47
2021/04/20 01:48:35;;;;;;;33.17;23.17;;;;;;;;;;4996486;28;20518;-49
2021/04/20 01:51:02;;;;;;;33.63;23.90;;;;;;;;;;4996658;28;20024;-48
2021/04/20 01:53:28;;;;;;;35.78;24.15;;;;;;;;;;4996664;28;20033;-46
2021/04/20 01:56:01;;;;;;;35.55;25.02;;;;;;;;;;4996458;28;20507;-48
2021/04/20 01:58:29;;;;;;;40.33;27.73;;;;;;;;;;4996482;28;20034;-47
2021/04/20 02:00:55;;;;;;;39.47;27.13;;;;;;;;;;4996481;28;20386;-47
2021/04/20 02:03:23;;;;;;;36.58;25.85;;;;;;;;;;4996439;28;20042;-46
2021/04/20 02:05:49;;;;;;;38.15;26.70;;;;;;;;;;4995494;28;20057;-48
2021/04/20 02:08:15;;;;;;;40.80;29.50;;;;;;;;;;4996436;28;20486;-46
2021/04/20 02:10:42;;;;;;;37.50;27.42;;;;;;;;;;4996258;28;20030;-45
2021/04/20 02:13:08;;;;;;;36.75;25.42;;;;;;;;;;4996121;28;20026;-46
2021/04/20 02:15:34;;;;;;;37.20;26.60;;;;;;;;;;4995839;28;20470;-46
2021/04/20 02:18:00;;;;;;;39.47;27.48;;;;;;;;;;4996186;28;20486;-46
2021/04/20 02:20:28;;;;;;;37.05;25.92;;;;;;;;;;4996158;28;20022;-45
2021/04/20 02:22:54;;;;;;;37.85;26.45;;;;;;;;;;4996211;28;20030;-45
2021/04/20 02:25:21;;;;;;;37.03;26.02;;;;;;;;;;4996022;28;20101;-46
2021/04/20 02:27:49;;;;;;;37.15;26.60;;;;;;;;;;4995874;28;20041;-45
2021/04/20 02:30:16;;;;;;;34.67;26.20;;;;;;;;;;4996063;28;20105;-46
2021/04/20 02:32:42;;;;;;;36.25;25.42;;;;;;;;;;4995806;28;20085;-45
2021/04/20 02:35:10;;;;;;;38.50;27.58;;;;;;;;;;4995579;28;20038;-47
2021/04/20 02:37:37;;;;;;;37.88;27.15;;;;;;;;;;4995459;28;20071;-47
2021/04/20 02:40:27;;;;;;;39.30;27.85;;;;;;;;;;4995392;28;20028;-46
2021/04/20 02:42:53;;;;;;;41.50;26.27;;;;;;;;;;4897554;29;20040;-46
2021/04/20 02:45:24;;;;;;;44.47;29.00;;;;;;;;;;4881905;29;20513;-46
2021/04/20 02:47:50;;;;;;;39.78;27.60;;;;;;;;;;4897888;29;20036;-48
2021/04/20 02:50:21;;;;;;;39.30;28.20;;;;;;;;;;4897715;29;20042;-46
2021/04/20 02:52:48;;;;;;;39.38;27.10;;;;;;;;;;4881863;29;20025;-47
2021/04/20 02:55:15;;;;;;;39.97;27.90;;;;;;;;;;4897544;29;20036;-46
2021/04/20 02:57:49;;;;;;;45.65;28.13;;;;;;;;;;4897156;29;20075;-46
2021/04/20 03:00:16;;;;;;;43.58;28.27;;;;;;;;;;4897223;29;20485;-46
2021/04/20 03:02:43;;;;;;;40.75;27.45;;;;;;;;;;4897559;29;20041;-47
2021/04/20 03:05:14;;;;;;;54.03;31.67;;;;;;;;;;4897254;29;20044;-47
2021/04/20 03:07:41;;;;;;;45.17;30.43;;;;;;;;;;4897299;29;20082;-47
2021/04/20 03:10:08;;;;;;;45.33;29.15;;;;;;;;;;4897176;29;20111;-46
2021/04/20 03:12:39;;;;;;;40.00;28.73;;;;;;;;;;4897206;29;20475;-46
2021/04/20 03:15:05;;;;;;;;;;;;;;;;;;4897967;29;20025;-46
2021/04/20 03:17:34;;;;;;;41.67;28.25;;;;;;;;;;4896223;29;20395;-47
2021/04/20 03:20:02;;;;;;;47.42;30.85;;;;;;;;;;4949590;28;20045;-47
2021/04/20 03:22:28;;;;;;;41.88;28.75;;;;;;;;;;4995061;28;20500;-46
2021/04/20 03:25:03;;;;;;;44.42;30.45;;;;;;;;;;4994603;28;20046;-47
2021/04/20 03:27:30;;;;;;;51.85;29.83;;;;;;;;;;4995247;28;20061;-47
2021/04/20 03:29:56;;;;;;;40.40;28.45;;;;;;;;;;4994715;28;20034;-47
2021/04/20 03:32:22;;;;;;;46.90;30.48;;;;;;;;;;4994500;28;20149;-48
2021/04/20 03:34:51;;;;;;;52.40;31.48;;;;;;;;;;4994219;28;20509;-48
2021/04/20 03:37:21;;;;;;;46.80;31.10;;;;;;;;;;4994323;28;20042;-50
2021/04/20 03:39:48;;;;;;;45.35;31.02;;;;;;;;;;4994391;28;20064;-48
2021/04/20 03:42:17;;;;;;;47.33;30.45;;;;;;;;;;4994387;28;20052;-46
2021/04/20 03:44:46;;;;;;;51.22;32.70;;;;;;;;;;4994410;28;20023;-48
2021/04/20 03:47:44;;;;;;;52.67;35.63;;;;;;;;;;4994611;28;20026;-47
2021/04/20 03:50:13;;;;;;;50.60;32.70;;;;;;;;;;4896842;29;20048;-47
2021/04/20 03:52:43;;;;;;;51.63;33.47;;;;;;;;;;4896728;29;20052;-46
2021/04/20 03:55:10;;;;;;;47.97;33.70;;;;;;;;;;4896492;29;20021;-46
2021/04/20 03:57:36;;;;;;;54.95;34.65;;;;;;;;;;4896697;29;20121;-47
2021/04/20 04:00:04;;;;;;;51.13;35.03;;;;;;;;;;4896669;29;20068;-48
2021/04/20 04:02:31;;;;;;;59.45;37.22;;;;;;;;;;4896671;29;20032;-47
2021/04/20 04:04:58;;;;;;;53.42;35.78;;;;;;;;;;4896308;29;20037;-50
2021/04/20 04:07:24;;;;;;;60.72;35.90;;;;;;;;;;4880577;29;20052;-47
2021/04/20 04:09:51;;;;;;;54.42;36.10;;;;;;;;;;4896494;29;20481;-48
2021/04/20 04:12:18;;;;;;;57.40;37.67;;;;;;;;;;4896382;29;20045;-47
2021/04/20 04:14:45;;;;;;;55.95;36.38;;;;;;;;;;4896253;29;20029;-47
2021/04/20 04:17:16;;;;;;;56.58;36.83;;;;;;;;;;4896096;29;20482;-47
2021/04/20 04:19:49;;;;;;;60.17;36.90;;;;;;;;;;4896204;29;20044;-49
2021/04/20 04:22:25;;;;;;;59.00;37.65;;;;;;;;;;4896196;29;20617;-48
2021/04/20 04:24:53;;;;;;;57.72;36.80;;;;;;;;;;4907328;28;20042;-47
2021/04/20 04:27:22;;;;;;;68.82;38.88;;;;;;;;;;4993669;28;20022;-48
2021/04/20 04:29:48;;;;;;;62.63;40.42;;;;;;;;;;4993293;28;20527;-47
2021/04/20 04:32:16;;;;;;;73.40;42.13;;;;;;;;;;4993604;28;20034;-47
2021/04/20 04:34:46;;;;;;;64.00;39.88;;;;;;;;;;4993978;28;20026;-46
2021/04/20 04:37:12;;;;;;;68.57;40.47;;;;;;;;;;4993413;28;20174;-48
2021/04/20 04:39:41;;;;;;;62.33;38.90;;;;;;;;;;4993748;28;20046;-47
2021/04/20 04:42:07;;;;;;;73.13;44.97;;;;;;;;;;4993689;28;20027;-47
2021/04/20 04:44:33;;;;;;;76.18;46.47;;;;;;;;;;4993669;28;20481;-46
2021/04/20 04:46:59;;;;;;;78.47;43.88;;;;;;;;;;4993540;28;20032;-45
2021/04/20 04:49:28;;;;;;;70.15;42.63;;;;;;;;;;4993624;28;20467;-46
2021/04/20 04:51:54;;;;;;;90.38;55.85;;;;;;;;;;4993636;28;20474;-45
2021/04/20 04:54:21;;;;;;;76.35;47.17;;;;;;;;;;4993743;28;20105;-46
2021/04/20 04:56:48;;;;;;;101.72;56.83;;;;;;;;;;4993365;28;20031;-49
2021/04/20 04:59:18;;;;;;;91.50;52.55;;;;;;;;;;4993050;28;20030;-50
2021/04/20 05:01:45;;;;;;;78.72;48.35;;;;;;;;;;4994029;28;20026;-48
2021/04/20 05:04:12;;;;;;;70.22;42.92;;;;;;;;;;4993654;28;20022;-49
2021/04/20 05:06:45;;;;;;;65.22;41.63;;;;;;;;;;4993538;28;20062;-51
2021/04/20 05:09:12;;;;;;;77.15;43.10;;;;;;;;;;4993660;28;20482;-48
2021/04/20 05:11:42;;;;;;;71.22;44.70;;;;;;;;;;4993301;28;20033;-48
2021/04/20 05:14:09;;;;;;;70.00;42.42;;;;;;;;;;4993200;28;20026;-48
2021/04/20 05:16:36;;;;;;;71.88;45.47;;;;;;;;;;4993471;28;20085;-48
2021/04/20 05:19:03;;;;;;;71.90;45.17;;;;;;;;;;4993640;28;20030;-48
2021/04/20 05:21:30;;;;;;;79.88;45.92;;;;;;;;;;4993507;28;20034;-49
2021/04/20 05:23:56;;;;;;;89.93;52.92;;;;;;;;;;4993361;28;20031;-48
2021/04/20 05:26:22;;;;;;;84.07;52.38;;;;;;;;;;4993307;28;20030;-48
2021/04/20 05:28:48;;;;;;;100.30;59.15;;;;;;;;;;4993320;28;20489;-48
2021/04/20 05:31:14;;;;;;;102.35;58.97;;;;;;;;;;4993547;28;20034;-47
2021/04/20 05:33:40;;;;;;;91.05;56.72;;;;;;;;;;4993449;28;20026;-48
2021/04/20 05:36:10;;;;;;;75.90;47.67;;;;;;;;;;4993097;28;20509;-48
2021/04/20 05:38:37;;;;;;;76.72;47.35;;;;;;;;;;4993417;28;20023;-49
2021/04/20 05:41:04;;;;;;;66.70;44.78;;;;;;;;;;4993472;28;20031;-47
2021/04/20 05:43:30;;;;;;;60.15;39.90;;;;;;;;;;4996968;28;20484;-48
2021/04/20 05:45:56;;;;;;;63.60;42.15;;;;;;;;;;4996857;28;20035;-50
2021/04/20 05:48:23;;;;;;;61.38;41.60;;;;;;;;;;4996735;28;20466;-48
2021/04/20 05:50:52;;;;;;;64.05;40.90;;;;;;;;;;4996842;28;20030;-48
2021/04/20 05:53:18;;;;;;;62.20;39.83;;;;;;;;;;4996609;28;20027;-48
2021/04/20 05:55:44;;;;;;;68.97;40.75;;;;;;;;;;4996567;28;20119;-49
2021/04/20 05:58:10;;;;;;;69.57;39.53;;;;;;;;;;4996468;28;20038;-48
2021/04/20 06:00:37;;;;;;;73.90;43.90;;;;;;;;;;4996115;28;20454;-48
2021/04/20 06:03:03;;;;;;;79.60;46.08;;;;;;;;;;4996362;28;20156;-48
2021/04/20 06:05:32;;;;;;;73.13;43.90;;;;;;;;;;4996150;28;20386;-49
2021/04/20 06:08:00;;;;;;;68.38;43.50;;;;;;;;;;4996236;28;20022;-48
2021/04/20 06:10:27;;;;;;;72.90;43.25;;;;;;;;;;4995933;28;20118;-50
2021/04/20 06:12:53;;;;;;;65.03;42.15;;;;;;;;;;4996351;28;20030;-48
2021/04/20 06:15:21;;;;;;;64.95;39.83;;;;;;;;;;4996091;28;20019;-48
2021/04/20 06:17:47;;;;;;;64.13;40.90;;;;;;;;;;4978671;28;20030;-51
2021/04/20 06:20:15;;;;;;;63.47;41.65;;;;;;;;;;4996175;28;20031;-48
2021/04/20 06:22:42;;;;;;;64.60;40.75;;;;;;;;;;4996288;28;20053;-48
2021/04/20 06:25:10;;;;;;;61.72;41.55;;;;;;;;;;4996014;28;20093;-48
2021/04/20 06:27:36;;;;;;;63.95;41.67;;;;;;;;;;4995903;28;20478;-48
2021/04/20 06:30:02;;;;;;;71.43;41.17;;;;;;;;;;4995818;28;20475;-51
2021/04/20 06:32:28;;;;;;;65.47;41.83;;;;;;;;;;4995890;28;20101;-51
2021/04/20 06:34:54;;;;;;;65.68;42.15;;;;;;;;;;4995768;28;20029;-49
2021/04/20 06:37:20;;;;;;;72.35;44.22;;;;;;;;;;4995690;28;20038;-51
2021/04/20 06:39:46;;;;;;;64.85;41.67;;;;;;;;;;4995645;28;20152;-49
2021/04/20 06:42:16;;;;;;;65.50;41.78;;;;;;;;;;4977462;28;20640;-48
2021/04/20 06:44:46;;;;;;;65.80;42.67;;;;;;;;;;4995885;28;20104;-48
2021/04/20 06:47:15;;;;;;;67.80;43.10;;;;;;;;;;4995534;28;20026;-48
2021/04/20 06:49:46;;;;;;;69.32;43.67;;;;;;;;;;4995579;28;20029;-48
2021/04/20 06:52:23;;;;;;;71.55;42.17;;;;;;;;;;4994987;28;20033;-49
2021/04/20 06:54:53;;;;;;;65.57;42.05;;;;;;;;;;4995041;28;20173;-48
2021/04/20 06:57:33;;;;;;;61.97;41.10;;;;;;;;;;4995051;28;20172;-47
2021/04/20 07:00:05;;;;;;;65.68;40.50;;;;;;;;;;4995060;28;20033;-52
2021/04/20 07:02:50;;;;;;;58.42;38.85;;;;;;;;;;4995507;28;20497;-55
2021/04/20 07:05:21;;;;;;;66.00;40.95;;;;;;;;;;4995177;28;20109;-48
2021/04/20 07:08:06;;;;;;;62.55;39.45;;;;;;;;;;4995130;28;20174;-50
2021/04/20 07:10:42;;;;;;;64.30;41.40;;;;;;;;;;4995069;28;20022;-50
2021/04/20 07:13:10;;;;;;;58.90;38.95;;;;;;;;;;4995184;28;20105;-48
2021/04/20 07:15:38;;;;;;;59.80;40.28;;;;;;;;;;4995072;28;20018;-49
2021/04/20 07:18:30;;;;;;;65.47;42.22;;;;;;;;;;4994881;28;20116;-48
2021/04/20 07:21:11;;;;;;;63.58;38.40;;;;;;;;;;4990961;28;20038;-49
2021/04/20 07:23:55;;;;;;;64.15;39.40;;;;;;;;;;4995043;28;20426;-50
2021/04/20 07:26:27;;;;;;;58.97;40.33;;;;;;;;;;4994879;28;20026;-50
2021/04/20 07:29:02;;;;;;;61.13;41.00;;;;;;;;;;4994609;28;20078;-49
2021/04/20 07:31:36;;;;;;;71.00;42.70;;;;;;;;;;4994791;28;20037;-49
2021/04/20 07:34:23;;;;;;;58.92;39.13;;;;;;;;;;4994726;28;20031;-48
2021/04/20 07:37:12;;;;;;;63.55;41.22;;;;;;;;;;4994865;28;20054;-46
2021/04/20 07:39:47;;;;;;;63.28;40.60;;;;;;;;;;4994603;28;20022;-46
2021/04/20 07:42:24;;;;;;;61.50;42.05;;;;;;;;;;4994464;28;20023;-47
2021/04/20 07:44:54;;;;;;;65.63;40.50;;;;;;;;;;4994535;28;20478;-47
2021/04/20 07:47:21;;;;;;;75.38;43.38;;;;;;;;;;4994336;28;20022;-47
2021/04/20 07:49:53;;;;;;;64.40;42.53;;;;;;;;;;4994412;28;20022;-47
2021/04/20 07:52:26;;;;;;;63.05;41.85;;;;;;;;;;4994549;28;20042;-47
2021/04/20 07:55:05;;;;;;;58.92;41.22;;;;;;;;;;4994441;28;20031;-47
2021/04/20 07:57:41;;;;;;;59.72;41.00;;;;;;;;;;4994024;28;20118;-47
2021/04/20 08:00:14;;;;;;;67.22;39.97;;;;;;;;;;4994371;28;20146;-48
2021/04/20 08:02:52;;;;;;;58.53;40.10;;;;;;;;;;4994260;28;20030;-48
2021/04/20 08:05:18;;;;;;;66.95;39.25;;;;;;;;;;4993355;28;20030;-47
2021/04/20 08:08:01;;;;;;;55.55;39.30;;;;;;;;;;4993763;28;20058;-48
2021/04/20 08:10:31;;;;;;;58.22;39.15;;;;;;;;;;4994007;28;20573;-48
2021/04/20 08:13:03;;;;;;;63.97;39.95;;;;;;;;;;4994141;28;20030;-50
2021/04/20 08:15:33;;;;;;;53.17;38.38;;;;;;;;;;4994302;28;20512;-48
2021/04/20 08:18:11;;;;;;;54.08;37.83;;;;;;;;;;4994197;28;20038;-49
2021/04/20 08:20:40;;;;;;;55.75;40.17;;;;;;;;;;4994023;28;20045;-48
2021/04/20 08:23:08;;;;;;;62.28;38.95;;;;;;;;;;4993893;28;20057;-48
2021/04/20 08:25:39;;;;;;;54.05;38.22;;;;;;;;;;4993983;28;20014;-48
2021/04/20 08:28:12;;;;;;;64.50;40.50;;;;;;;;;;4994313;28;20375;-48
2021/04/20 08:30:47;;;;;;;60.63;39.30;;;;;;;;;;4994228;28;20105;-49
2021/04/20 08:33:18;;;;;;;55.75;36.25;;;;;;;;;;4993983;28;20498;-49
2021/04/20 08:35:50;;;;;;;57.55;37.20;;;;;;;;;;4993872;28;20042;-49
2021/04/20 08:38:28;;;;;;;49.85;32.92;;;;;;;;;;4993987;28;20041;-50
2021/04/20 08:41:14;;;;;;;48.20;34.05;;;;;;;;;;4993893;28;20045;-48
2021/04/20 08:43:45;;;;;;;52.15;35.75;;;;;;;;;;4993649;28;20475;-48
2021/04/20 08:46:14;;;;;;;54.45;34.75;;;;;;;;;;4993475;28;20034;-48
2021/04/20 08:48:50;;;;;;;46.95;34.17;;;;;;;;;;4993486;28;20062;-48
2021/04/20 08:51:18;;;;;;;50.65;33.45;;;;;;;;;;4993566;28;20030;-49
2021/04/20 08:53:53;;;;;;;45.38;34.60;;;;;;;;;;4993676;28;20058;-49
2021/04/20 08:56:38;;;;;;;51.55;34.55;;;;;;;;;;4993549;28;20150;-50
2021/04/20 08:59:11;;;;;;;50.80;34.15;;;;;;;;;;4993599;28;20062;-48
2021/04/20 09:01:42;;;;;;;50.17;35.03;;;;;;;;;;4993557;28;20030;-48
2021/04/20 09:04:11;;;;;;;54.08;37.05;;;;;;;;;;4993551;28;20542;-49
2021/04/20 09:06:51;;;;;;;47.38;32.42;;;;;;;;;;4993211;28;20050;-49
2021/04/20 09:09:18;;;;;;;45.10;31.65;;;;;;;;;;4993461;28;20478;-48
2021/04/20 09:11:49;;;;;;;43.50;31.92;;;;;;;;;;4993342;28;20018;-48
2021/04/20 09:14:35;;;;;;;45.97;32.55;;;;;;;;;;4993475;28;20031;-48
2021/04/20 09:17:04;;;;;;;46.22;32.58;;;;;;;;;;4996690;28;20038;-48
2021/04/20 09:19:34;;;;;;;42.92;28.63;;;;;;;;;;4997195;28;20030;-47
2021/04/20 09:22:15;;;;;;;40.55;28.13;;;;;;;;;;4996888;28;20034;-47
2021/04/20 09:24:41;;;;;;;;;;;;;;;;;;4997268;28;20435;-49
2021/04/20 09:27:10;;;;;;;42.42;29.90;;;;;;;;;;4996869;28;19949;-47
2021/04/20 09:29:39;;;;;;;35.92;27.73;;;;;;;;;;4997081;28;20018;-48
2021/04/20 09:32:07;;;;;;;39.35;29.17;;;;;;;;;;4996923;28;20034;-50
2021/04/20 09:34:37;;;;;;;39.67;30.30;;;;;;;;;;4996821;28;20034;-47
2021/04/20 09:37:04;;;;;;;43.10;29.67;;;;;;;;;;4996842;28;20364;-47
2021/04/20 09:39:34;;;;;;;46.25;32.33;;;;;;;;;;4996509;28;20038;-47
2021/04/20 09:42:02;;;;;;;49.20;33.72;;;;;;;;;;4996397;28;20022;-47
2021/04/20 09:44:41;;;;;;;36.22;27.33;;;;;;;;;;4996804;28;20030;-48
2021/04/20 09:47:07;;;;;;;37.45;27.52;;;;;;;;;;4996266;28;20488;-48
2021/04/20 09:49:33;;;;;;;37.05;28.85;;;;;;;;;;4996422;28;20061;-47
2021/04/20 09:52:01;;;;;;;32.42;26.77;;;;;;;;;;4996358;28;20479;-47
2021/04/20 09:54:35;;;;;;;39.92;30.27;;;;;;;;;;4996407;28;20038;-47
2021/04/20 09:57:02;;;;;;;33.10;25.83;;;;;;;;;;4995532;28;20030;-47
2021/04/20 09:59:31;;;;;;;33.55;26.00;;;;;;;;;;4962027;28;20031;-47
2021/04/20 10:02:22;;;;;;;32.58;24.23;;;;;;;;;;4995921;28;20030;-47
2021/04/20 10:04:58;;;;;;;36.53;25.98;;;;;;;;;;4981978;28;20085;-48
2021/04/20 10:07:50;;;;;;;42.97;26.60;;;;;;;;;;4958985;28;20503;-47
2021/04/20 10:10:35;;;;;;;136.98;95.07;;;;;;;;;;4976444;28;20054;-49
2021/04/20 10:13:20;;;;;;;103.55;64.35;;;;;;;;;;4976404;28;20035;-49
2021/04/20 10:15:48;;;;;;;118.78;69.95;;;;;;;;;;4976405;28;20023;-49
2021/04/20 10:18:28;;;;;;;71.18;47.22;;;;;;;;;;4976475;28;20062;-51
2021/04/20 10:20:54;;;;;;;58.20;41.00;;;;;;;;;;4976410;28;20041;-48
2021/04/20 10:23:37;;;;;;;120.32;71.80;;;;;;;;;;4976372;28;20057;-49
2021/04/20 10:26:07;;;;;;;92.50;56.63;;;;;;;;;;4976191;28;20033;-48
2021/04/20 10:28:33;;;;;;;50.60;36.80;;;;;;;;;;4963838;28;20050;-49
2021/04/20 10:31:11;;;;;;;49.42;34.10;;;;;;;;;;4965277;28;20061;-47
2021/04/20 10:33:37;;;;;;;64.18;39.90;;;;;;;;;;4967054;28;20364;-46
2021/04/20 10:36:04;;;;;;;41.55;31.90;;;;;;;;;;4964864;28;20060;-48
2021/04/20 10:38:33;;;;;;;47.47;31.35;;;;;;;;;;4966093;28;20043;-45
2021/04/20 10:41:01;;;;;;;33.45;27.00;;;;;;;;;;4965855;28;20109;-47
2021/04/20 10:43:30;;;;;;;47.00;32.15;;;;;;;;;;4964872;28;20397;-47
2021/04/20 10:45:58;;;;;;;42.05;31.05;;;;;;;;;;4963942;28;20394;-47
2021/04/20 10:48:26;;;;;;;38.15;27.40;;;;;;;;;;4965615;28;20022;-48
2021/04/20 10:50:53;;;;;;;41.20;30.35;;;;;;;;;;4965309;28;20020;-48
2021/04/20 10:53:26;;;;;;;46.72;29.00;;;;;;;;;;4964357;28;20155;-47
2021/04/20 10:56:03;;;;;;;33.30;26.30;;;;;;;;;;4964996;28;20388;-50
2021/04/20 10:58:30;;;;;;;32.33;25.52;;;;;;;;;;4963556;28;20038;-50
2021/04/20 11:00:57;;;;;;;31.88;24.88;;;;;;;;;;4964942;28;20094;-46
2021/04/20 11:03:29;;;;;;;35.17;26.45;;;;;;;;;;4965654;28;20035;-46
2021/04/20 11:05:55;;;;;;;37.45;27.83;;;;;;;;;;4964094;28;20047;-50
2021/04/20 11:08:23;;;;;;;30.13;23.20;;;;;;;;;;4963574;28;20027;-47
2021/04/20 11:10:51;;;;;;;36.60;25.48;;;;;;;;;;4965055;28;20066;-47
2021/04/20 11:13:33;;;;;;;30.25;24.15;;;;;;;;;;4965159;28;20038;-46
2021/04/20 11:15:59;;;;;;;38.47;27.77;;;;;;;;;;4965670;28;20039;-47
2021/04/20 11:18:25;;;;;;;37.05;27.70;;;;;;;;;;4963386;28;20045;-47
2021/04/20 11:20:52;;;;;;;32.85;24.38;;;;;;;;;;4964539;28;20027;-46
2021/04/20 11:23:23;;;;;;;31.63;24.98;;;;;;;;;;4965141;28;20082;-47
2021/04/20 11:25:55;;;;;;;30.40;23.98;;;;;;;;;;4963736;28;20019;-48
2021/04/20 11:28:25;;;;;;;35.55;26.75;;;;;;;;;;4963117;28;20023;-46
2021/04/20 11:30:54;;;;;;;35.30;25.92;;;;;;;;;;4964237;28;20081;-47
2021/04/20 11:33:23;;;;;;;34.75;25.70;;;;;;;;;;4965651;28;20945;-47
2021/04/20 11:35:50;;;;;;;44.28;25.70;;;;;;;;;;4964080;28;20027;-47
2021/04/20 11:38:17;;;;;;;35.83;25.30;;;;;;;;;;4964604;28;20483;-47
2021/04/20 11:40:49;;;;;;;39.72;26.50;;;;;;;;;;4962965;28;20023;-47
2021/04/20 11:43:15;;;;;;;32.85;25.33;;;;;;;;;;4962977;28;20110;-46
2021/04/20 11:45:42;;;;;;;34.40;25.92;;;;;;;;;;4964941;28;20023;-47
2021/04/20 11:48:20;;;;;;;42.08;28.15;;;;;;;;;;4968725;28;21398;-49
2021/04/20 11:50:53;;;;;;;34.55;23.52;;;;;;;;;;4967342;28;20027;-47
2021/04/20 11:53:20;;;;;;;29.02;22.67;;;;;;;;;;4966098;28;20024;-47
2021/04/20 11:55:48;;;;;;;30.70;21.73;;;;;;;;;;4965054;28;20471;-47
2021/04/20 11:58:20;;;;;;;32.50;23.73;;;;;;;;;;4963584;28;20035;-46
2021/04/20 12:00:46;;;;;;;24.98;20.30;;;;;;;;;;4964291;28;20479;-47
2021/04/20 12:03:14;;;;;;;32.95;22.40;;;;;;;;;;4939974;28;20049;-46
2021/04/20 12:05:41;;;;;;;34.63;24.60;;;;;;;;;;4963628;28;20468;-46
2021/04/20 12:08:11;;;;;;;29.98;23.40;;;;;;;;;;4964542;28;20031;-47
2021/04/20 12:10:37;;;;;;;31.65;23.42;;;;;;;;;;4963046;28;20023;-47
2021/04/20 12:13:04;;;;;;;30.83;21.50;;;;;;;;;;4962995;28;20039;-47
2021/04/20 12:15:30;;;;;;;27.20;21.10;;;;;;;;;;4955282;28;20025;-47
2021/04/20 12:18:00;;;;;;;31.90;21.70;;;;;;;;;;4955291;29;20035;-50
2021/04/20 12:20:27;;;;;;;28.65;21.15;;;;;;;;;;4955121;29;20023;-52
2021/04/20 12:22:53;;;;;;;32.03;22.40;;;;;;;;;;4967408;28;20431;-50
2021/04/20 12:25:20;;;;;;;84.38;60.65;;;;;;;;;;4974409;28;20027;-48
2021/04/20 12:27:51;;;;;;;114.75;76.43;;;;;;;;;;4974304;28;20386;-49
2021/04/20 12:30:18;;;;;;;70.68;49.05;;;;;;;;;;4974306;28;20030;-47
2021/04/20 12:32:44;;;;;;;43.05;29.63;;;;;;;;;;4974136;28;20035;-47
2021/04/20 12:35:11;;;;;;;48.53;33.10;;;;;;;;;;4973972;28;20031;-44
2021/04/20 12:37:37;;;;;;;50.20;32.40;;;;;;;;;;4974044;28;20034;-48
2021/04/20 12:40:05;;;;;;;94.20;71.40;;;;;;;;;;4974245;28;20080;-47
2021/04/20 12:42:35;;;;;;;118.57;83.43;;;;;;;;;;4973973;28;20510;-46
2021/04/20 12:45:06;;;;;;;45.17;33.03;;;;;;;;;;4973868;28;20114;-46
2021/04/20 12:47:33;;;;;;;46.03;32.05;;;;;;;;;;4974166;28;20479;-50
2021/04/20 12:50:03;;;;;;;76.00;52.90;;;;;;;;;;4974452;28;20391;-46
2021/04/20 12:52:30;;;;;;;34.08;23.60;;;;;;;;;;4978719;28;20050;-48
2021/04/20 12:55:05;;;;;;;31.52;23.52;;;;;;;;;;4978048;28;20061;-46
2021/04/20 12:57:32;;;;;;;32.35;24.88;;;;;;;;;;4977926;28;20039;-47
2021/04/20 13:00:00;;;;;;;48.60;33.65;;;;;;;;;;4978060;28;20074;-46
2021/04/20 13:02:27;;;;;;;34.70;24.92;;;;;;;;;;4977862;28;20546;-47
2021/04/20 13:04:59;;;;;;;32.28;21.95;;;;;;;;;;4977695;28;20175;-47
2021/04/20 13:07:26;;;;;;;44.08;28.10;;;;;;;;;;4977699;28;20047;-48
2021/04/20 13:09:52;;;;;;;45.67;30.02;;;;;;;;;;4977329;28;20022;-46
2021/04/20 13:12:25;;;;;;;29.15;23.23;;;;;;;;;;4977958;28;20034;-47
2021/04/20 13:14:52;;;;;;;44.35;31.60;;;;;;;;;;4977806;28;20018;-47
2021/04/20 13:17:19;;;;;;;37.85;27.38;;;;;;;;;;4977666;28;20096;-47
2021/04/20 13:19:50;;;;;;;36.17;25.30;;;;;;;;;;4977763;28;20438;-47
2021/04/20 13:22:16;;;;;;;31.45;23.13;;;;;;;;;;4977672;28;20534;-48
2021/04/20 13:24:43;;;;;;;38.40;25.13;;;;;;;;;;4977575;28;20086;-48
2021/04/20 13:27:10;;;;;;;32.00;22.98;;;;;;;;;;4977550;28;20569;-49
2021/04/20 13:29:40;;;;;;;32.38;23.23;;;;;;;;;;4968713;28;20031;-46
2021/04/20 13:32:09;;;;;;;31.55;23.35;;;;;;;;;;4967449;28;20019;-47
2021/04/20 13:34:38;;;;;;;74.18;34.67;;;;;;;;;;4966649;28;20027;-46
2021/04/20 13:37:08;;;;;;;44.63;29.98;;;;;;;;;;4964620;28;20073;-46
2021/04/20 13:39:36;;;;;;;26.70;20.08;;;;;;;;;;4966693;28;20531;-48
2021/04/20 13:42:04;;;;;;;28.77;22.00;;;;;;;;;;4968106;28;20027;-47
2021/04/20 13:44:35;;;;;;;30.05;21.58;;;;;;;;;;4961447;28;20027;-47
2021/04/20 13:47:03;;;;;;;27.10;19.57;;;;;;;;;;4957851;29;20047;-49
2021/04/20 13:49:29;;;;;;;34.78;23.88;;;;;;;;;;4957792;28;20349;-47
2021/04/20 13:52:08;;;;;;;26.42;20.02;;;;;;;;;;4957750;29;20035;-46
2021/04/20 13:54:38;;;;;;;30.52;21.95;;;;;;;;;;4957567;29;20027;-46
2021/04/20 13:57:06;;;;;;;33.38;21.95;;;;;;;;;;4957179;28;20480;-47
2021/04/20 13:59:35;;;;;;;37.35;25.10;;;;;;;;;;4948055;28;20066;-49
2021/04/20 14:02:04;;;;;;;40.13;25.23;;;;;;;;;;4944697;28;20347;-48
2021/04/20 14:04:30;;;;;;;39.90;26.77;;;;;;;;;;4945573;28;20031;-47
2021/04/20 14:07:00;;;;;;;53.47;34.10;;;;;;;;;;4945413;28;20055;-47
2021/04/20 14:09:28;;;;;;;36.97;26.85;;;;;;;;;;4945180;28;20027;-48
2021/04/20 14:11:59;;;;;;;88.95;55.17;;;;;;;;;;4946010;28;20023;-48
2021/04/20 14:14:34;;;;;;;37.53;25.92;;;;;;;;;;4945484;28;20093;-47
2021/04/20 14:17:00;;;;;;;120.28;69.90;;;;;;;;;;4945598;28;20035;-48
2021/04/20 14:19:27;;;;;;;65.40;40.03;;;;;;;;;;4944821;28;20058;-46
2021/04/20 14:21:58;;;;;;;57.15;35.83;;;;;;;;;;4945633;28;20023;-47
2021/04/20 14:24:24;;;;;;;;;;;;;;;;;;4945245;28;20028;-48
2021/04/20 14:26:53;;;;;;;58.22;39.92;;;;;;;;;;4945385;28;19960;-47
2021/04/20 14:29:21;;;;;;;52.50;30.00;;;;;;;;;;4944730;28;20019;-48
2021/04/20 14:31:49;;;;;;;64.93;40.30;;;;;;;;;;4944997;28;20029;-47